Time;durP1;ratioP1;P1;durP2;ratioP2;P2;SDS_P1;SDS_P2;PMS_P1;PMS_P2;Temp;Humidity;BMP_temperature;BMP_pressure;BME280_temperature;BME280_humidity;BME280_pressure;Samples;Min_cycle;Max_cycle;Signal;HPM_P1;HPM_P2
2024/02/03 00:03:04;;;;;;;5.63;2.90;;;;;;;17.31;52.50;102379.97;10414255;28;20025;-57
2024/02/03 00:08:05;;;;;;;4.88;2.30;;;;;;;17.29;51.95;102376.75;10439033;28;20036;-58
2024/02/03 00:13:05;;;;;;;4.85;2.80;;;;;;;17.29;52.55;102366.81;10415870;28;20120;-58
2024/02/03 00:18:05;;;;;;;3.92;2.20;;;;;;;17.28;52.41;102359.81;10412302;28;20385;-57
2024/02/03 00:23:06;;;;;;;3.35;2.58;;;;;;;17.30;52.66;102360.41;10412349;28;20056;-57
2024/02/03 00:28:06;;;;;;;3.58;2.22;;;;;;;17.30;52.55;102351.56;10413063;28;20113;-57
2024/02/03 00:33:06;;;;;;;4.45;2.10;;;;;;;17.33;52.15;102359.91;10413726;28;20038;-58
2024/02/03 00:38:08;;;;;;;4.82;2.17;;;;;;;17.34;52.94;102358.03;10423275;28;20065;-57
2024/02/03 00:43:08;;;;;;;3.08;2.13;;;;;;;17.31;51.58;102356.66;10410827;28;20026;-57
2024/02/03 00:48:09;;;;;;;4.53;2.20;;;;;;;17.34;51.81;102360.72;10415881;28;20034;-57
2024/02/03 00:53:09;;;;;;;3.97;1.92;;;;;;;17.31;52.55;102362.03;10411196;28;20033;-57
2024/02/03 00:58:10;;;;;;;3.38;2.10;;;;;;;17.34;52.67;102363.41;10410575;28;20504;-57
2024/02/03 01:03:10;;;;;;;4.20;1.75;;;;;;;17.34;52.44;102358.84;10412567;28;20033;-57
2024/02/03 01:08:10;;;;;;;4.75;2.30;;;;;;;17.34;52.61;102356.16;10424934;28;20025;-57
2024/02/03 01:13:11;;;;;;;4.22;2.25;;;;;;;17.37;51.68;102338.75;10412604;28;20159;-57
2024/02/03 01:18:11;;;;;;;3.33;1.77;;;;;;;17.35;52.75;102335.53;10409933;28;20739;-58
2024/02/03 01:23:11;;;;;;;3.30;2.10;;;;;;;17.31;51.48;102334.41;10410341;28;20049;-57
2024/02/03 01:28:14;;;;;;;3.53;1.52;;;;;;;17.31;52.64;102334.41;10410643;28;20041;-58
2024/02/03 01:33:14;;;;;;;3.40;1.60;;;;;;;17.31;52.43;102337.91;10438698;28;20029;-58
2024/02/03 01:38:15;;;;;;;2.88;1.33;;;;;;;17.33;51.43;102333.09;10436323;28;20017;-58
2024/02/03 01:43:16;;;;;;;3.70;1.73;;;;;;;17.36;51.29;102329.91;10418753;28;20028;-58
2024/02/03 01:48:16;;;;;;;1.42;1.17;;;;;;;17.33;51.76;102325.06;10414157;28;20036;-57
2024/02/03 01:53:17;;;;;;;4.20;1.67;;;;;;;17.30;52.96;102325.56;10408669;28;20017;-58
2024/02/03 01:58:18;;;;;;;2.58;1.73;;;;;;;17.29;52.25;102328.50;10408249;28;20029;-58
2024/02/03 02:03:18;;;;;;;2.50;1.42;;;;;;;17.32;51.40;102326.13;10411510;28;20048;-58
2024/02/03 02:08:19;;;;;;;4.07;2.47;;;;;;;17.31;52.34;102315.63;10423044;28;20039;-57
2024/02/03 02:13:19;;;;;;;4.13;1.45;;;;;;;17.31;51.71;102318.31;10409679;28;20041;-58
2024/02/03 02:18:20;;;;;;;1.90;1.50;;;;;;;17.31;52.46;102327.19;10408681;28;20553;-57
2024/02/03 02:23:20;;;;;;;2.20;1.20;;;;;;;17.28;51.41;102310.75;10408660;28;20333;-57
2024/02/03 02:28:21;;;;;;;2.05;0.98;;;;;;;17.31;52.51;102315.63;10410139;28;20053;-57
2024/02/03 02:33:21;;;;;;;3.38;1.75;;;;;;;17.32;51.48;102311.91;10411293;28;20044;-58
2024/02/03 02:38:22;;;;;;;3.00;1.23;;;;;;;17.32;52.38;102312.72;10418479;28;20025;-58
2024/02/03 02:43:22;;;;;;;2.80;1.52;;;;;;;17.32;51.63;102309.22;10408195;28;20025;-58
2024/02/03 02:48:23;;;;;;;2.88;1.10;;;;;;;17.33;51.78;102302.78;10412937;28;20022;-58
2024/02/03 02:53:23;;;;;;;2.70;1.25;;;;;;;17.33;52.25;102300.91;10406264;28;20029;-57
2024/02/03 02:58:23;;;;;;;4.07;2.15;;;;;;;17.35;51.19;102303.34;10408191;28;20025;-58
2024/02/03 03:03:24;;;;;;;2.17;1.15;;;;;;;17.31;51.17;102305.72;10412248;28;20024;-57
2024/02/03 03:08:24;;;;;;;3.10;1.55;;;;;;;17.32;51.22;102293.13;10418165;28;20108;-58
2024/02/03 03:13:24;;;;;;;2.88;1.27;;;;;;;17.30;52.42;102279.97;10455220;28;20048;-57
2024/02/03 03:18:25;;;;;;;2.25;1.15;;;;;;;17.34;52.41;102282.97;10455003;28;20025;-58
2024/02/03 03:23:25;;;;;;;2.33;0.90;;;;;;;17.35;51.91;102292.63;10455604;28;20024;-57
2024/02/03 03:28:26;;;;;;;1.43;1.00;;;;;;;17.32;51.58;102279.72;10439365;28;20631;-57
2024/02/03 03:33:26;;;;;;;2.60;1.00;;;;;;;17.34;52.29;102282.97;10418205;28;20279;-57
2024/02/03 03:38:27;;;;;;;2.37;0.90;;;;;;;17.33;51.25;102273.31;10423186;28;20500;-58
2024/02/03 03:43:27;;;;;;;2.15;0.80;;;;;;;17.33;52.78;102281.34;10413759;28;20357;-57
2024/02/03 03:48:28;;;;;;;2.50;0.97;;;;;;;17.33;52.89;102286.72;10417556;28;20087;-57
2024/02/03 03:53:28;;;;;;;1.83;0.98;;;;;;;17.35;51.14;102293.44;10413426;28;20272;-57
2024/02/03 03:58:28;;;;;;;2.93;1.00;;;;;;;17.36;52.23;102283.53;10413686;28;20017;-57
2024/02/03 04:03:29;;;;;;;1.10;0.70;;;;;;;17.33;51.16;102276.78;10430627;28;20747;-58
2024/02/03 04:08:29;;;;;;;2.63;1.13;;;;;;;17.33;52.81;102270.63;10440902;28;20292;-57
2024/02/03 04:13:31;;;;;;;2.95;1.40;;;;;;;17.34;52.40;102289.13;10412471;28;20065;-58
2024/02/03 04:18:32;;;;;;;3.08;0.98;;;;;;;17.34;52.62;102289.13;10411743;28;20045;-57
2024/02/03 04:23:32;;;;;;;1.60;0.70;;;;;;;17.34;51.79;102283.78;10412300;28;20392;-57
2024/02/03 04:28:32;;;;;;;1.83;0.70;;;;;;;17.32;51.78;102280.53;10413410;28;20028;-57
2024/02/03 04:33:32;;;;;;;2.00;1.13;;;;;;;17.34;51.49;102270.38;10443360;28;20267;-57
2024/02/03 04:38:33;;;;;;;1.90;0.70;;;;;;;17.31;52.65;102259.34;10439763;28;20283;-57
2024/02/03 04:43:33;;;;;;;1.83;0.93;;;;;;;17.36;51.12;102264.75;10452737;28;20734;-58
2024/02/03 04:48:33;;;;;;;3.40;0.93;;;;;;;17.33;51.41;102265.25;10438849;28;20357;-58
2024/02/03 04:53:34;;;;;;;2.23;0.97;;;;;;;17.33;51.56;102251.84;10423992;28;20690;-57
2024/02/03 04:58:35;;;;;;;2.17;0.82;;;;;;;17.33;52.86;102267.94;10426982;28;20306;-57
2024/02/03 05:03:37;;;;;;;2.38;0.80;;;;;;;17.33;51.70;102270.63;10428323;28;20013;-58
2024/02/03 05:08:37;;;;;;;2.55;0.98;;;;;;;17.34;52.43;102264.19;10434797;28;20055;-57
2024/02/03 05:13:37;;;;;;;1.50;0.80;;;;;;;17.31;52.32;102260.16;10418502;28;20156;-57
2024/02/03 05:18:38;;;;;;;1.73;0.63;;;;;;;17.34;51.41;102254.28;10424922;28;20354;-57
2024/02/03 05:23:38;;;;;;;1.83;1.00;;;;;;;17.35;51.29;102253.22;10423068;28;20268;-57
2024/02/03 05:28:38;;;;;;;1.52;0.80;;;;;;;17.33;51.23;102251.84;10430265;28;20968;-58
2024/02/03 05:33:39;;;;;;;1.67;1.07;;;;;;;17.34;51.44;102259.66;10429931;28;20025;-58
2024/02/03 05:38:39;;;;;;;2.07;0.73;;;;;;;17.35;52.20;102247.06;10425663;28;20311;-58
2024/02/03 05:43:39;;;;;;;1.40;0.70;;;;;;;17.35;52.01;102255.09;10426771;28;20307;-59
2024/02/03 05:48:40;;;;;;;2.03;0.87;;;;;;;17.35;51.51;102245.19;10430996;28;20028;-58
2024/02/03 05:53:40;;;;;;;1.87;0.80;;;;;;;17.37;52.00;102247.59;10422524;28;20362;-58
2024/02/03 05:58:40;;;;;;;2.63;0.90;;;;;;;17.36;52.30;102248.66;10431593;28;20786;-57
2024/02/03 06:03:41;;;;;;;2.28;1.00;;;;;;;17.34;51.73;102248.91;10436405;28;20355;-58
2024/02/03 06:08:41;;;;;;;2.20;0.97;;;;;;;17.35;52.53;102249.72;10436238;28;20040;-57
2024/02/03 06:13:41;;;;;;;1.95;0.77;;;;;;;17.33;52.30;102266.06;10421458;28;20346;-58
2024/02/03 06:18:42;;;;;;;1.67;0.68;;;;;;;17.31;52.16;102253.97;10408810;28;20027;-58
2024/02/03 06:23:42;;;;;;;3.10;0.85;;;;;;;17.30;51.63;102239.75;10425457;28;20338;-58
2024/02/03 06:28:42;;;;;;;2.70;0.88;;;;;;;17.32;51.80;102234.16;10431010;28;20036;-57
2024/02/03 06:33:43;;;;;;;3.07;0.90;;;;;;;17.35;51.81;102249.72;10423737;28;20040;-57
2024/02/03 06:38:43;;;;;;;6.00;1.33;;;;;;;17.35;51.65;102247.84;10417743;28;20274;-57
2024/02/03 06:43:44;;;;;;;3.83;1.10;;;;;;;17.36;53.31;102244.13;10414851;28;20292;-57
2024/02/03 06:48:44;;;;;;;6.47;0.98;;;;;;;17.26;52.88;102243.97;10421942;28;20291;-58
2024/02/03 06:53:44;;;;;;;5.90;1.23;;;;;;;17.42;52.23;102245.00;10427747;28;20644;-57
2024/02/03 06:58:46;;;;;;;10.00;1.57;;;;;;;17.35;54.32;102252.41;10442681;28;20108;-57
2024/02/03 07:03:47;;;;;;;12.25;1.60;;;;;;;17.32;54.21;102252.91;10455553;28;20303;-58
2024/02/03 07:08:47;;;;;;;6.33;1.73;;;;;;;17.29;54.53;102248.06;10439771;28;20021;-58
2024/02/03 07:13:47;;;;;;;11.57;1.87;;;;;;;17.22;54.74;102253.59;10441279;28;20674;-58
2024/02/03 07:18:47;;;;;;;7.93;1.93;;;;;;;17.21;54.54;102260.81;10448559;28;20285;-59
2024/02/03 07:23:49;;;;;;;11.60;1.97;;;;;;;17.18;56.16;102272.06;10426442;28;20298;-58
2024/02/03 07:28:50;;;;;;;11.63;2.00;;;;;;;17.14;56.84;102265.53;10417516;28;20703;-57
2024/02/03 07:33:50;;;;;;;11.27;2.37;;;;;;;17.13;56.44;102274.66;10418622;28;20029;-57
2024/02/03 07:38:51;;;;;;;13.93;2.63;;;;;;;17.12;55.91;102285.63;10417902;28;20279;-58
2024/02/03 07:43:51;;;;;;;10.48;2.30;;;;;;;17.10;55.86;102282.38;10413005;28;20287;-58
2024/02/03 07:48:52;;;;;;;12.27;2.13;;;;;;;17.05;56.81;102275.09;10417405;28;20029;-57
2024/02/03 07:53:52;;;;;;;10.25;2.08;;;;;;;17.03;55.46;102274.50;10418655;28;20279;-57
2024/02/03 07:58:52;;;;;;;16.70;3.57;;;;;;;17.00;57.28;102271.50;10427099;28;20013;-58
2024/02/03 08:03:53;;;;;;;12.43;1.87;;;;;;;16.99;57.30;102281.41;10432907;28;20635;-57
2024/02/03 08:08:53;;;;;;;6.20;2.13;;;;;;;16.95;55.52;102281.13;10423760;28;20305;-56
2024/02/03 08:13:53;;;;;;;10.73;2.10;;;;;;;16.93;56.79;102287.78;10421397;28;20071;-58
2024/02/03 08:18:54;;;;;;;6.30;1.93;;;;;;;16.97;56.54;102296.94;10422079;28;20278;-58
2024/02/03 08:23:54;;;;;;;10.47;2.27;;;;;;;16.93;56.60;102303.84;10411344;28;20374;-57
2024/02/03 08:28:54;;;;;;;16.67;3.45;;;;;;;16.94;56.64;102292.88;10417794;28;20291;-56
2024/02/03 08:33:55;;;;;;;17.00;3.70;;;;;;;16.97;56.19;102304.16;10430500;28;20032;-56
2024/02/03 08:38:55;;;;;;;14.20;2.03;;;;;;;17.00;54.86;102301.00;10420143;28;20277;-57
2024/02/03 08:43:56;;;;;;;9.90;2.67;;;;;;;17.03;54.67;102300.50;10410432;28;20083;-57
2024/02/03 08:48:56;;;;;;;13.52;2.53;;;;;;;17.04;54.40;102294.88;10413886;28;20021;-56
2024/02/03 08:53:57;;;;;;;9.73;2.70;;;;;;;17.03;54.52;102293.25;10408515;28;20449;-56
2024/02/03 08:58:57;;;;;;;8.88;2.92;;;;;;;17.07;54.63;102272.16;10408349;28;20033;-56
2024/02/03 09:03:57;;;;;;;8.43;2.60;;;;;;;17.11;54.45;102278.63;10416073;28;20524;-56
2024/02/03 09:08:58;;;;;;;9.90;2.83;;;;;;;17.13;54.89;102285.38;10421065;28;20311;-57
2024/02/03 09:13:58;;;;;;;9.37;2.20;;;;;;;17.13;54.56;102284.56;10409123;28;20643;-55
2024/02/03 09:18:58;;;;;;;4.65;1.80;;;;;;;17.17;53.59;102283.84;10408782;28;20276;-56
2024/02/03 09:23:59;;;;;;;4.73;1.70;;;;;;;17.17;54.04;102291.88;10408908;28;20033;-57
2024/02/03 09:28:59;;;;;;;6.03;1.98;;;;;;;17.17;54.58;102294.56;10409864;28;21072;-56
2024/02/03 09:34:03;;;;;;;8.27;1.90;;;;;;;17.19;54.10;102300.47;10444640;28;20484;-56
2024/02/03 09:39:03;;;;;;;6.63;2.08;;;;;;;17.15;53.99;102291.28;10411174;28;20271;-57
2024/02/03 09:44:04;;;;;;;4.47;1.90;;;;;;;17.13;53.29;102288.03;10406949;28;20018;-56
2024/02/03 09:49:05;;;;;;;4.47;1.70;;;;;;;17.12;52.97;102285.63;10411614;28;20291;-57
2024/02/03 09:54:05;;;;;;;5.05;1.92;;;;;;;17.16;54.38;102303.63;10407636;28;20461;-55
2024/02/03 09:59:06;;;;;;;7.80;1.80;;;;;;;17.17;54.12;102293.75;10408268;28;20464;-55
2024/02/03 10:04:06;;;;;;;5.77;1.63;;;;;;;17.18;53.03;102316.81;10414259;28;20045;-55
2024/02/03 10:09:07;;;;;;;4.40;2.00;;;;;;;17.20;54.00;102309.31;10420135;28;20283;-57
2024/02/03 10:14:07;;;;;;;5.57;2.28;;;;;;;17.20;52.82;102318.19;10411401;28;20049;-57
2024/02/03 10:19:07;;;;;;;4.80;1.67;;;;;;;17.18;53.62;102314.94;10415956;28;20021;-57
2024/02/03 10:24:08;;;;;;;2.60;1.23;;;;;;;17.16;53.94;102303.63;10416204;28;20117;-57
2024/02/03 10:29:15;;;;;;;6.72;1.65;;;;;;;17.19;53.38;102318.44;10416548;28;20029;-57
2024/02/03 10:34:16;;;;;;;7.70;3.15;;;;;;;17.19;52.81;102324.59;10452261;28;20028;-56
2024/02/03 10:39:17;;;;;;;5.22;1.55;;;;;;;17.14;53.83;102321.84;10415032;28;20531;-57
2024/02/03 10:44:23;;;;;;;5.17;1.27;;;;;;;17.13;53.33;102312.16;10437964;28;20037;-55
2024/02/03 10:49:31;;;;;;;12.82;2.35;;;;;;;17.12;54.28;102313.22;10426422;28;20383;-58
2024/02/03 10:54:33;;;;;;;14.90;2.87;;;;;;;17.25;53.94;102309.38;10436419;28;20028;-55
2024/02/03 10:59:33;;;;;;;10.90;2.50;;;;;;;17.21;54.52;102308.28;10431508;28;20271;-57
2024/02/03 11:04:38;;;;;;;15.18;3.30;;;;;;;17.18;53.79;102331.03;10441725;28;20025;-58
2024/02/03 11:09:40;;;;;;;8.00;2.05;;;;;;;17.19;53.99;102319.25;10426970;28;20029;-58
2024/02/03 11:14:42;;;;;;;9.80;2.35;;;;;;;17.22;54.10;102307.22;10413942;28;20049;-58
2024/02/03 11:19:44;;;;;;;10.38;2.90;;;;;;;17.16;53.66;102298.25;10413846;28;20029;-57
2024/02/03 11:24:44;;;;;;;14.27;3.33;;;;;;;17.09;56.15;102303.00;10438764;28;20086;-57
2024/02/03 11:29:45;;;;;;;11.60;2.37;;;;;;;17.09;55.68;102292.28;10442358;28;20056;-56
2024/02/03 11:34:45;;;;;;;16.80;2.97;;;;;;;17.06;55.18;102302.69;10452919;28;20288;-57
2024/02/03 11:39:46;;;;;;;10.77;2.33;;;;;;;17.02;57.18;102288.16;10429939;28;20670;-56
2024/02/03 11:44:57;;;;;;;15.40;3.50;;;;;;;17.04;58.00;102275.31;10418015;28;20288;-57
2024/02/03 11:49:58;;;;;;;18.45;3.80;;;;;;;17.03;58.44;102276.38;10415538;28;20089;-57
2024/02/03 11:54:58;;;;;;;18.17;3.13;;;;;;;17.03;57.61;102277.19;10412862;28;20089;-57
2024/02/03 11:59:59;;;;;;;15.20;3.33;;;;;;;17.03;57.31;102255.75;10412395;28;20022;-55
2024/02/03 12:05:00;;;;;;;10.55;2.97;;;;;;;17.12;56.05;102267.66;10419752;28;20029;-56
2024/02/03 12:10:00;;;;;;;10.38;2.70;;;;;;;17.16;57.26;102265.28;10424566;28;20025;-57
2024/02/03 12:15:02;;;;;;;7.10;2.13;;;;;;;17.31;57.71;102262.84;10420218;28;20045;-56
2024/02/03 12:20:02;;;;;;;11.52;2.88;;;;;;;17.35;59.22;102252.41;10411986;28;20116;-56
2024/02/03 12:25:02;;;;;;;9.20;2.78;;;;;;;17.44;57.90;102258.97;10412387;28;20071;-58
2024/02/03 12:30:19;;;;;;;14.38;3.97;;;;;;;17.49;57.70;102248.28;10424135;28;20376;-57
2024/02/03 12:35:19;;;;;;;16.48;3.22;;;;;;;17.51;56.95;102257.69;10438766;28;20039;-55
2024/02/03 12:40:19;;;;;;;9.47;2.10;;;;;;;17.46;57.35;102259.53;10423676;28;20021;-56
2024/02/03 12:45:20;;;;;;;12.45;3.28;;;;;;;17.45;56.48;102247.19;10411804;28;20675;-55
2024/02/03 12:50:20;;;;;;;20.33;3.70;;;;;;;17.48;55.81;102233.25;10451026;28;20636;-56
2024/02/03 12:55:20;;;;;;;15.37;3.10;;;;;;;17.50;56.20;102233.81;10452156;28;20345;-54
2024/02/03 13:00:21;;;;;;;12.90;3.70;;;;;;;17.47;56.83;102228.97;10439088;28;20682;-55
2024/02/03 13:05:22;;;;;;;19.48;4.50;;;;;;;17.42;56.54;102223.56;10429901;28;20274;-56
2024/02/03 13:10:22;;;;;;;22.27;4.97;;;;;;;17.41;56.70;102221.94;10435746;28;20101;-56
2024/02/03 13:15:22;;;;;;;13.10;3.00;;;;;;;17.35;55.69;102217.56;10408896;28;20061;-56
2024/02/03 13:20:24;;;;;;;14.77;4.05;;;;;;;17.37;55.79;102221.59;10417756;28;20280;-56
2024/02/03 13:25:24;;;;;;;17.27;3.70;;;;;;;17.43;56.38;102211.75;10439258;28;20024;-56
2024/02/03 13:30:24;;;;;;;19.48;4.78;;;;;;;17.36;55.48;102224.53;10419043;28;20284;-57
2024/02/03 13:35:27;;;;;;;12.20;3.47;;;;;;;17.37;56.56;102240.38;10422964;28;20485;-57
2024/02/03 13:40:27;;;;;;;22.25;4.22;;;;;;;17.35;56.78;102218.38;10409538;28;20264;-57
2024/02/03 13:45:29;;;;;;;17.10;3.03;;;;;;;17.29;57.11;102221.25;10409390;28;20025;-56
2024/02/03 13:50:29;;;;;;;32.80;6.38;;;;;;;17.22;57.37;102222.25;10412350;28;20419;-56
2024/02/03 13:55:30;;;;;;;16.23;3.50;;;;;;;17.24;56.46;102228.16;10423545;28;20409;-57
2024/02/03 14:00:31;;;;;;;22.17;4.80;;;;;;;17.32;56.66;102216.19;10425081;28;20271;-58
2024/02/03 14:05:31;;;;;;;37.10;6.53;;;;;;;17.20;57.47;102226.22;10428787;28;20275;-56
2024/02/03 14:10:32;;;;;;;36.03;5.40;;;;;;;17.13;57.22;102221.03;10430884;28;20028;-57
2024/02/03 14:15:32;;;;;;;17.10;4.13;;;;;;;17.14;56.62;102214.63;10413045;28;20045;-57
2024/02/03 14:20:35;;;;;;;17.55;5.03;;;;;;;17.14;57.49;102214.63;10406981;28;20276;-56
2024/02/03 14:25:36;;;;;;;15.27;4.63;;;;;;;17.13;57.20;102212.19;10407453;28;20030;-57
2024/02/03 14:30:37;;;;;;;21.80;5.10;;;;;;;17.06;57.17;102212.41;10412654;28;20500;-57
2024/02/03 14:35:37;;;;;;;14.90;3.80;;;;;;;17.08;56.49;102214.81;10413401;28;20032;-54
2024/02/03 14:40:37;;;;;;;27.05;5.75;;;;;;;17.04;58.50;102211.00;10415107;28;20306;-56
2024/02/03 14:45:38;;;;;;;27.77;6.07;;;;;;;17.08;59.03;102214.81;10412947;28;20473;-56
2024/02/03 14:50:38;;;;;;;20.77;5.73;;;;;;;17.05;58.29;102217.97;10407854;28;20292;-55
2024/02/03 14:55:38;;;;;;;21.23;4.32;;;;;;;17.06;57.07;102209.72;10409316;28;20325;-55
2024/02/03 15:00:39;;;;;;;15.80;4.07;;;;;;;17.08;57.36;102212.13;10412712;28;20029;-57
2024/02/03 15:05:39;;;;;;;20.13;4.83;;;;;;;17.06;57.56;102209.72;10422280;28;20276;-57
2024/02/03 15:10:40;;;;;;;18.87;5.17;;;;;;;17.06;58.43;102203.53;10445096;28;20337;-56
2024/02/03 15:15:40;;;;;;;14.20;4.65;;;;;;;17.07;57.74;102216.69;10417467;28;20810;-57
2024/02/03 15:20:41;;;;;;;24.83;6.27;;;;;;;17.06;57.78;102207.03;10415503;28;20576;-57
2024/02/03 15:25:41;;;;;;;13.32;3.20;;;;;;;17.10;58.02;102213.50;10432277;28;20311;-57
2024/02/03 15:30:41;;;;;;;14.15;4.30;;;;;;;17.10;58.44;102213.50;10422204;28;20428;-57
2024/02/03 15:35:42;;;;;;;14.97;3.60;;;;;;;17.11;57.87;102211.63;10424460;28;20033;-56
2024/02/03 15:40:42;;;;;;;11.10;3.37;;;;;;;17.13;57.22;102212.19;10432395;28;20290;-57
2024/02/03 15:45:44;;;;;;;11.27;4.23;;;;;;;17.14;58.07;102217.31;10439517;28;20283;-56
2024/02/03 15:50:44;;;;;;;12.02;4.20;;;;;;;17.12;58.19;102219.44;10434042;28;20291;-56
2024/02/03 15:55:44;;;;;;;16.43;3.63;;;;;;;17.15;57.74;102221.59;10427931;28;20493;-56
2024/02/03 16:00:45;;;;;;;14.80;4.10;;;;;;;17.10;58.66;102220.75;10445810;28;20337;-56
2024/02/03 16:05:45;;;;;;;11.30;3.42;;;;;;;17.15;57.09;102226.97;10436860;28;20645;-56
2024/02/03 16:10:45;;;;;;;14.13;3.40;;;;;;;17.15;57.46;102231.50;10436515;28;20033;-57
2024/02/03 16:15:46;;;;;;;13.83;3.80;;;;;;;17.20;56.93;102226.22;10418031;28;20296;-57
2024/02/03 16:20:46;;;;;;;10.07;3.75;;;;;;;17.24;57.86;102219.31;10415367;28;20279;-56
2024/02/03 16:25:46;;;;;;;8.95;3.40;;;;;;;17.26;56.95;102222.53;10424847;28;20029;-56
2024/02/03 16:30:47;;;;;;;13.83;3.13;;;;;;;17.22;58.32;102219.56;10425152;28;20079;-57
2024/02/03 16:35:47;;;;;;;10.60;3.93;;;;;;;17.24;57.53;102213.94;10446475;28;20287;-57
2024/02/03 16:40:47;;;;;;;11.63;2.93;;;;;;;17.48;58.26;102211.81;10425529;28;20271;-54
2024/02/03 16:45:48;;;;;;;14.37;4.57;;;;;;;17.49;57.56;102208.06;10431582;28;20276;-55
2024/02/03 16:50:48;;;;;;;14.73;3.38;;;;;;;17.57;58.56;102207.63;10416714;28;20284;-55
2024/02/03 16:55:49;;;;;;;15.00;3.47;;;;;;;17.63;59.92;102211.97;10423792;28;20516;-56
2024/02/03 17:00:49;;;;;;;7.80;3.07;;;;;;;17.65;60.29;102204.50;10409750;28;20075;-57
2024/02/03 17:05:49;;;;;;;10.70;3.50;;;;;;;17.60;60.21;102209.78;10422258;28;20346;-57
2024/02/03 17:10:50;;;;;;;12.40;5.23;;;;;;;17.50;59.48;102209.69;10428841;28;20291;-56
2024/02/03 17:15:50;;;;;;;9.93;2.83;;;;;;;17.41;60.98;102209.34;10426082;28;20303;-56
2024/02/03 17:20:50;;;;;;;9.27;3.43;;;;;;;17.40;58.98;102214.91;10406452;28;20279;-57
2024/02/03 17:25:51;;;;;;;10.23;2.43;;;;;;;17.37;59.42;102220.78;10406620;28;20286;-56
2024/02/03 17:30:51;;;;;;;11.87;3.63;;;;;;;17.34;59.22;102232.84;10408705;28;20283;-56
2024/02/03 17:35:51;;;;;;;6.87;3.10;;;;;;;17.31;58.51;102227.16;10419981;28;20280;-56
2024/02/03 17:40:51;;;;;;;13.07;3.37;;;;;;;17.24;59.21;102236.19;10406050;28;20740;-55
2024/02/03 17:45:52;;;;;;;8.53;2.50;;;;;;;17.21;58.34;102227.84;10408622;28;20276;-56
2024/02/03 17:50:52;;;;;;;8.20;2.40;;;;;;;17.21;58.67;102225.16;10406899;28;20288;-54
2024/02/03 17:55:52;;;;;;;6.60;2.90;;;;;;;17.16;59.11;102215.19;10407747;28;20056;-58
2024/02/03 18:00:53;;;;;;;7.47;2.97;;;;;;;17.24;58.56;102220.13;10408726;28;20291;-58
2024/02/03 18:05:53;;;;;;;12.17;3.10;;;;;;;17.33;57.05;102233.09;10415293;28;20915;-57
2024/02/03 18:10:53;;;;;;;9.25;2.88;;;;;;;17.31;58.70;102230.66;10419881;28;20299;-58
2024/02/03 18:15:54;;;;;;;10.83;3.03;;;;;;;17.34;57.53;102227.47;10418224;28;20484;-57
2024/02/03 18:20:54;;;;;;;9.55;2.65;;;;;;;17.34;56.88;102235.50;10427171;28;20271;-57
2024/02/03 18:25:54;;;;;;;5.43;2.17;;;;;;;17.39;57.44;102219.47;10413539;28;20029;-57
2024/02/03 18:30:55;;;;;;;7.03;2.53;;;;;;;17.38;56.79;102217.84;10430221;28;20047;-57
2024/02/03 18:35:55;;;;;;;10.03;3.00;;;;;;;17.52;57.10;102213.75;10429017;28;20029;-58
2024/02/03 18:40:55;;;;;;;7.20;2.53;;;;;;;17.43;58.00;102219.81;10416640;28;20276;-57
2024/02/03 18:45:56;;;;;;;9.93;3.15;;;;;;;17.41;58.24;102227.28;10400806;28;20303;-58
2024/02/03 18:50:56;;;;;;;9.90;3.25;;;;;;;17.37;58.07;102235.00;10415905;28;20380;-57
2024/02/03 18:55:57;;;;;;;4.87;2.20;;;;;;;17.31;58.42;102238.69;10428370;28;20025;-56
2024/02/03 19:00:57;;;;;;;6.95;2.28;;;;;;;17.31;58.43;102240.56;10423627;28;20283;-57
2024/02/03 19:05:58;;;;;;;6.72;3.03;;;;;;;17.29;57.94;102248.06;10428479;28;20028;-57
2024/02/03 19:10:59;;;;;;;10.77;2.53;;;;;;;17.28;58.93;102257.13;10427972;28;20038;-57
2024/02/03 19:15:59;;;;;;;14.57;2.80;;;;;;;17.27;59.02;102240.25;10414623;28;20049;-58
2024/02/03 19:21:01;;;;;;;7.13;2.80;;;;;;;17.24;58.14;102233.50;10415104;28;20477;-57
2024/02/03 19:26:02;;;;;;;7.68;2.78;;;;;;;17.24;57.79;102236.19;10414444;28;20276;-57
2024/02/03 19:31:02;;;;;;;7.28;2.47;;;;;;;17.20;57.83;102227.03;10434076;28;20025;-58
2024/02/03 19:36:04;;;;;;;6.32;2.30;;;;;;;17.18;59.32;102231.84;10432509;28;20033;-61
2024/02/03 19:41:05;;;;;;;7.30;2.40;;;;;;;17.17;57.67;102238.28;10424642;28;20017;-57
2024/02/03 19:46:05;;;;;;;5.70;2.63;;;;;;;17.17;57.72;102243.63;10452617;28;20028;-58
2024/02/03 19:51:05;;;;;;;7.27;2.73;;;;;;;17.14;59.00;102222.66;10414088;28;20036;-57
2024/02/03 19:56:06;;;;;;;4.82;2.97;;;;;;;17.17;57.51;102248.19;10413758;28;20272;-57
2024/02/03 20:01:06;;;;;;;8.68;3.28;;;;;;;17.17;58.04;102242.81;10412196;28;20180;-57
2024/02/03 20:06:07;;;;;;;5.97;2.23;;;;;;;17.16;58.88;102231.25;10419325;28;20032;-58
2024/02/03 20:11:07;;;;;;;6.35;3.15;;;;;;;17.16;59.27;102233.94;10425999;28;20733;-57
2024/02/03 20:16:08;;;;;;;6.70;2.80;;;;;;;17.17;58.79;102221.38;10414861;28;20077;-57
2024/02/03 20:21:09;;;;;;;6.05;1.85;;;;;;;17.20;57.90;102207.47;10412880;28;20390;-57
2024/02/03 20:26:09;;;;;;;6.80;2.53;;;;;;;17.20;58.29;102232.41;10412548;28;20036;-57
2024/02/03 20:31:10;;;;;;;5.73;3.10;;;;;;;17.19;57.64;102224.63;10414430;28;20290;-56
2024/02/03 20:36:12;;;;;;;5.45;2.17;;;;;;;17.20;58.14;102232.41;10425116;28;20286;-58
2024/02/03 20:41:22;;;;;;;6.68;2.22;;;;;;;17.22;58.49;102213.38;10412893;28;20037;-58
2024/02/03 20:46:23;;;;;;;7.85;2.72;;;;;;;17.20;57.80;102220.88;10452164;28;20646;-58
2024/02/03 20:51:23;;;;;;;5.97;2.13;;;;;;;17.24;58.32;102203.22;10421346;28;20029;-58
2024/02/03 20:56:23;;;;;;;5.22;2.17;;;;;;;17.23;58.76;102215.81;10410187;28;20367;-58
2024/02/03 21:01:24;;;;;;;9.25;2.72;;;;;;;17.23;57.79;102212.31;10410789;28;20527;-58
2024/02/03 21:06:24;;;;;;;8.23;2.13;;;;;;;17.25;57.91;102207.50;10420161;28;20029;-57
2024/02/03 21:11:27;;;;;;;5.63;1.97;;;;;;;17.24;57.35;102203.22;10437475;28;20461;-57
2024/02/03 21:16:27;;;;;;;8.38;2.90;;;;;;;17.20;57.57;102188.72;10451331;28;20302;-57
2024/02/03 21:21:35;;;;;;;4.47;2.40;;;;;;;17.24;57.19;102179.09;10451764;28;20032;-57
2024/02/03 21:26:35;;;;;;;6.00;2.63;;;;;;;17.24;57.38;102189.81;10436823;28;20280;-57
2024/02/03 21:31:36;;;;;;;8.00;2.10;;;;;;;17.21;57.57;102175.06;10425551;28;20028;-57
2024/02/03 21:36:36;;;;;;;6.47;2.40;;;;;;;17.22;57.29;102160.59;10427623;28;20082;-56
2024/02/03 21:41:38;;;;;;;6.37;2.50;;;;;;;17.24;57.16;102163.00;10423715;28;20703;-56
2024/02/03 21:46:38;;;;;;;4.68;2.65;;;;;;;17.28;56.24;102157.94;10420340;28;20271;-54
2024/02/03 21:51:38;;;;;;;3.73;2.07;;;;;;;17.29;56.18;102159.59;10406190;28;20036;-57
2024/02/03 21:56:39;;;;;;;3.93;2.27;;;;;;;17.27;57.25;102150.97;10405869;28;20286;-56
2024/02/03 22:01:39;;;;;;;4.23;2.03;;;;;;;17.30;56.01;102137.09;10405689;28;20302;-56
2024/02/03 22:06:40;;;;;;;4.50;2.00;;;;;;;17.31;56.20;102130.66;10412998;28;20609;-57
2024/02/03 22:11:42;;;;;;;5.53;2.63;;;;;;;17.33;55.27;102131.22;10417998;28;20280;-57
2024/02/03 22:16:42;;;;;;;5.25;2.47;;;;;;;17.32;55.58;102130.41;10405291;28;20037;-57
2024/02/03 22:21:44;;;;;;;4.75;1.92;;;;;;;17.32;56.86;102140.31;10405823;28;20032;-56
2024/02/03 22:26:46;;;;;;;4.40;2.35;;;;;;;17.29;55.92;102136.28;10406227;28;20494;-56
2024/02/03 22:31:46;;;;;;;5.75;2.33;;;;;;;17.31;56.69;102130.66;10405381;28;20481;-57
2024/02/03 22:36:47;;;;;;;4.93;1.80;;;;;;;17.29;55.09;102130.09;10417454;28;20029;-55
2024/02/03 22:41:47;;;;;;;3.53;1.90;;;;;;;17.33;56.61;102110.56;10405135;28;20033;-56
2024/02/03 22:46:48;;;;;;;4.43;1.80;;;;;;;17.33;56.00;102101.72;10406868;28;20268;-56
2024/02/03 22:51:48;;;;;;;4.07;2.20;;;;;;;17.34;55.46;102106.03;10405764;28;20017;-57
2024/02/03 22:56:48;;;;;;;4.80;2.67;;;;;;;17.32;55.24;102105.47;10404753;28;20226;-57